Time;durP1;ratioP1;P1;durP2;ratioP2;P2;SDS_P1;SDS_P2;PMS_P1;PMS_P2;Temp;Humidity;BMP_temperature;BMP_pressure;BME280_temperature;BME280_humidity;BME280_pressure;Samples;Min_cycle;Max_cycle;Signal;HPM_P1;HPM_P2
2022/10/23 00:00:04;;;;;;;;;;;19.10;99.90;19.20;99373.00;;;;333420;29;89175;-89
2022/10/23 00:00:16;;;;;;;;;;;19.00;99.90;19.10;99364.00;;;;331516;29;82289;-89
2022/10/23 00:00:28;;;;;;;;;;;19.00;99.90;19.20;99369.00;;;;334864;29;88024;-89
2022/10/23 00:00:40;;;;;;;;;;;19.00;99.90;19.20;99369.00;;;;334178;29;83239;-89
2022/10/23 00:00:52;;;;;;;;;;;19.00;99.90;19.10;99367.00;;;;332311;29;88253;-89
2022/10/23 00:01:35;;;;;;;;;;;19.00;99.90;19.10;99362.00;;;;334061;29;82413;-88
2022/10/23 00:01:46;;;;;;;;;;;19.00;99.90;19.20;99366.00;;;;331944;29;89870;-89
2022/10/23 00:02:01;;;;;;;;;;;19.00;99.90;19.20;99370.00;;;;333859;29;82474;-89
2022/10/23 00:02:12;;;;;;;;;;;19.00;99.90;19.20;99360.00;;;;333370;29;92312;-89
2022/10/23 00:02:24;;;;;;;;;;;19.00;99.90;19.20;99363.00;;;;332669;29;83324;-88
2022/10/23 00:02:36;;;;;;;;;;;19.00;99.90;19.20;99364.00;;;;333453;29;91664;-89
2022/10/23 00:02:51;;;;;;;;;;;19.00;99.90;19.20;99358.00;;;;332670;29;82606;-89
2022/10/23 00:03:03;;;;;;;;;;;19.00;99.90;19.20;99353.00;;;;332345;29;88720;-89
2022/10/23 00:03:15;;;;;;;;;;;19.00;99.90;19.20;99349.00;;;;332709;29;83651;-89
2022/10/23 00:03:26;;;;;;;;;;;19.00;99.90;19.20;99353.00;;;;333541;29;88872;-88
2022/10/23 00:03:41;;;;;;;;;;;19.00;99.90;19.20;99346.00;;;;333886;29;83658;-89
2022/10/23 00:04:00;;;;;;;;;;;19.00;99.90;19.20;99354.00;;;;332182;29;91407;-89
2022/10/23 00:04:19;;;;;;;;;;;19.00;99.90;19.20;99350.00;;;;335234;29;82657;-89
2022/10/23 00:04:31;;;;;;;;;;;19.00;99.90;19.20;99354.00;;;;333742;29;88225;-89
2022/10/23 00:04:43;;;;;;;;;;;19.00;99.90;19.20;99347.00;;;;332789;29;83352;-89
2022/10/23 00:04:54;;;;;;;;;;;19.00;99.90;19.20;99349.00;;;;333499;29;92214;-89
2022/10/23 00:05:06;;;;;;;;;;;19.00;99.90;19.20;99358.00;;;;332574;29;83522;-89
2022/10/23 00:05:19;;;;;;;;;;;19.00;99.90;19.20;99352.00;;;;332197;29;88470;-89
2022/10/23 00:05:31;;;;;;;;;;;19.00;99.90;19.20;99355.00;;;;333726;29;82583;-89
2022/10/23 00:05:43;;;;;;;;;;;19.00;99.90;19.20;99351.00;;;;336229;28;90006;-88
2022/10/23 00:05:55;;;;;;;;;;;19.00;99.90;19.20;99351.00;;;;332771;29;83484;-88
2022/10/23 00:06:07;;;;;;;;;;;19.00;99.90;19.20;99348.00;;;;333607;29;91396;-88
2022/10/23 00:06:20;;;;;;;;;;;19.00;99.90;19.20;99356.00;;;;336589;28;83571;-89
2022/10/23 00:06:32;;;;;;;;;;;19.00;99.90;19.20;99357.00;;;;336154;28;89330;-89
2022/10/23 00:06:44;;;;;;;;;;;19.00;99.90;19.20;99353.00;;;;336306;28;83465;-89
2022/10/23 00:06:56;;;;;;;;;;;19.00;99.90;19.30;99355.00;;;;333323;29;90265;-89
2022/10/23 00:07:08;;;;;;;;;;;19.00;99.90;19.20;99357.00;;;;334078;29;83356;-89
2022/10/23 00:07:20;;;;;;;;;;;19.00;99.90;19.20;99350.00;;;;335990;28;90760;-89
2022/10/23 00:07:31;;;;;;;;;;;19.00;99.90;19.10;99349.00;;;;332444;29;82633;-89
2022/10/23 00:07:43;;;;;;;;;;;19.00;99.90;19.10;99348.00;;;;333845;29;92534;-89
2022/10/23 00:07:56;;;;;;;;;;;19.00;99.90;19.10;99340.00;;;;335340;29;82522;-89
2022/10/23 00:08:08;;;;;;;;;;;19.00;99.90;19.20;99346.00;;;;333682;29;91906;-89
2022/10/23 00:08:20;;;;;;;;;;;19.00;99.90;19.20;99341.00;;;;335346;29;83353;-88
2022/10/23 00:08:32;;;;;;;;;;;19.00;99.90;19.20;99341.00;;;;334832;29;88335;-89
2022/10/23 00:08:45;;;;;;;;;;;19.00;99.90;19.20;99347.00;;;;331404;29;83572;-89
2022/10/23 00:08:57;;;;;;;;;;;19.00;99.90;19.20;99346.00;;;;336080;28;91130;-88
2022/10/23 00:09:11;;;;;;;;;;;19.00;99.90;19.20;99354.00;;;;333931;29;82672;-88
2022/10/23 00:09:23;;;;;;;;;;;19.00;99.90;19.20;99344.00;;;;332377;29;89288;-87
2022/10/23 00:09:34;;;;;;;;;;;19.00;99.90;19.20;99339.00;;;;335152;29;82636;-89
2022/10/23 00:09:46;;;;;;;;;;;19.00;99.90;19.30;99346.00;;;;333343;29;92831;-89
2022/10/23 00:09:58;;;;;;;;;;;19.00;99.90;19.20;99339.00;;;;332793;29;82587;-89
2022/10/23 00:10:10;;;;;;;;;;;19.00;99.90;19.10;99351.00;;;;333501;29;90664;-89
2022/10/23 00:10:22;;;;;;;;;;;19.00;99.90;19.10;99345.00;;;;332542;29;83499;-89
2022/10/23 00:10:34;;;;;;;;;;;19.00;99.90;19.20;99348.00;;;;332277;29;87654;-89
2022/10/23 00:10:45;;;;;;;;;;;19.00;99.90;19.20;99354.00;;;;332579;29;82613;-88
2022/10/23 00:10:57;;;;;;;;;;;19.00;99.90;19.10;99351.00;;;;332494;29;86663;-89
2022/10/23 00:11:10;;;;;;;;;;;19.00;99.90;19.20;99358.00;;;;333944;29;82644;-89
2022/10/23 00:11:24;;;;;;;;;;;19.00;99.90;19.10;99347.00;;;;333474;29;90544;-89
2022/10/23 00:11:35;;;;;;;;;;;19.00;99.90;19.10;99355.00;;;;333871;29;83570;-89
2022/10/23 00:11:48;;;;;;;;;;;19.00;99.90;19.10;99352.00;;;;334652;29;90466;-88
2022/10/23 00:12:00;;;;;;;;;;;19.00;99.90;19.10;99354.00;;;;336456;28;82643;-88
2022/10/23 00:12:12;;;;;;;;;;;19.00;99.90;19.10;99347.00;;;;333423;29;89763;-89
2022/10/23 00:12:26;;;;;;;;;;;19.00;99.90;19.10;99350.00;;;;333517;29;83630;-88
2022/10/23 00:12:38;;;;;;;;;;;19.00;99.90;19.10;99347.00;;;;332398;29;87670;-88
2022/10/23 00:12:51;;;;;;;;;;;19.00;99.90;19.10;99342.00;;;;336424;28;82455;-89
2022/10/23 00:13:03;;;;;;;;;;;19.00;99.90;19.10;99349.00;;;;336148;28;87749;-89
2022/10/23 00:13:14;;;;;;;;;;;18.90;99.90;19.10;99351.00;;;;337723;28;83552;-88
2022/10/23 00:13:26;;;;;;;;;;;19.00;99.90;19.20;99349.00;;;;337607;28;87745;-88
2022/10/23 00:13:38;;;;;;;;;;;18.90;99.90;19.20;99351.00;;;;333930;29;83258;-88
2022/10/23 00:13:50;;;;;;;;;;;19.00;99.90;19.20;99351.00;;;;336035;28;89375;-89
2022/10/23 00:14:03;;;;;;;;;;;19.00;99.90;19.10;99354.00;;;;334045;29;83470;-89
2022/10/23 00:14:20;;;;;;;;;;;19.00;99.90;19.10;99349.00;;;;333583;29;87699;-88
2022/10/23 00:14:32;;;;;;;;;;;19.00;99.90;19.10;99353.00;;;;335194;28;83467;-89
2022/10/23 00:14:43;;;;;;;;;;;19.00;99.90;19.10;99347.00;;;;333480;29;89895;-89
2022/10/23 00:14:55;;;;;;;;;;;19.00;99.90;19.10;99354.00;;;;332872;29;82633;-89
2022/10/23 00:15:07;;;;;;;;;;;18.90;99.90;19.10;99346.00;;;;332385;29;88394;-88
2022/10/23 00:15:20;;;;;;;;;;;19.00;99.90;19.10;99353.00;;;;334036;29;83403;-88
2022/10/23 00:15:33;;;;;;;;;;;19.00;99.90;19.10;99350.00;;;;332239;29;90234;-89
2022/10/23 00:15:45;;;;;;;;;;;19.00;99.90;19.10;99350.00;;;;331559;29;83456;-88
2022/10/23 00:15:56;;;;;;;;;;;18.90;99.90;19.10;99353.00;;;;332116;29;88972;-88
2022/10/23 00:16:08;;;;;;;;;;;18.90;99.90;19.10;99351.00;;;;335447;29;83571;-88
2022/10/23 00:16:20;;;;;;;;;;;19.00;99.90;19.10;99355.00;;;;335001;29;88100;-89
2022/10/23 00:16:32;;;;;;;;;;;18.90;99.90;19.10;99362.00;;;;335344;29;83213;-88
2022/10/23 00:16:45;;;;;;;;;;;18.90;99.90;19.00;99352.00;;;;334910;29;88399;-88
2022/10/23 00:16:56;;;;;;;;;;;18.90;99.90;19.10;99359.00;;;;333955;29;82720;-89
2022/10/23 00:17:11;;;;;;;;;;;18.90;99.90;19.10;99350.00;;;;334885;29;87532;-89
2022/10/23 00:17:22;;;;;;;;;;;18.90;99.90;19.10;99353.00;;;;334576;28;82582;-88
2022/10/23 00:17:34;;;;;;;;;;;18.90;99.90;19.10;99351.00;;;;334832;29;86625;-88
2022/10/23 00:17:46;;;;;;;;;;;18.90;99.90;19.10;99355.00;;;;332480;29;83646;-88
2022/10/23 00:17:58;;;;;;;;;;;18.90;99.90;19.10;99363.00;;;;334692;29;91024;-89
2022/10/23 00:18:10;;;;;;;;;;;18.90;99.90;19.10;99356.00;;;;336651;28;83426;-89
2022/10/23 00:18:22;;;;;;;;;;;18.90;99.90;19.10;99357.00;;;;334808;29;89622;-89
2022/10/23 00:18:34;;;;;;;;;;;18.90;99.90;19.10;99347.00;;;;336659;28;83352;-89
2022/10/23 00:18:45;;;;;;;;;;;18.90;99.90;19.20;99347.00;;;;333372;29;90665;-89
2022/10/23 00:18:57;;;;;;;;;;;18.90;99.90;19.20;99347.00;;;;333820;29;83513;-88
2022/10/23 00:19:09;;;;;;;;;;;19.00;99.90;19.20;99356.00;;;;333509;29;89014;-89
2022/10/23 00:19:21;;;;;;;;;;;19.00;99.90;19.20;99361.00;;;;333175;29;83786;-89
2022/10/23 00:19:33;;;;;;;;;;;19.00;99.90;19.10;99349.00;;;;333477;29;91709;-89
2022/10/23 00:19:44;;;;;;;;;;;19.00;99.90;19.10;99349.00;;;;332494;29;82467;-88
2022/10/23 00:19:56;;;;;;;;;;;18.90;99.90;19.10;99347.00;;;;333573;29;90667;-89
2022/10/23 00:20:08;;;;;;;;;;;18.90;99.90;19.10;99346.00;;;;335164;29;83523;-89
2022/10/23 00:20:20;;;;;;;;;;;18.90;99.90;19.10;99345.00;;;;335284;28;89753;-89
2022/10/23 00:20:32;;;;;;;;;;;18.90;99.90;19.10;99340.00;;;;332777;29;83537;-89
2022/10/23 00:20:44;;;;;;;;;;;18.90;99.90;19.10;99349.00;;;;335488;28;88982;-89
2022/10/23 00:20:56;;;;;;;;;;;18.90;99.90;19.10;99345.00;;;;333700;29;82702;-89
2022/10/23 00:21:09;;;;;;;;;;;18.90;99.90;19.10;99341.00;;;;330956;29;89448;-89
2022/10/23 00:21:20;;;;;;;;;;;18.90;99.90;19.00;99341.00;;;;332532;29;83518;-88
2022/10/23 00:21:32;;;;;;;;;;;18.90;99.90;19.10;99347.00;;;;334711;29;90608;-89
2022/10/23 00:21:44;;;;;;;;;;;18.90;99.90;19.10;99345.00;;;;333960;29;83385;-89
2022/10/23 00:21:55;;;;;;;;;;;18.90;99.90;19.10;99352.00;;;;332203;29;90098;-89
2022/10/23 00:22:07;;;;;;;;;;;18.90;99.90;19.10;99351.00;;;;335186;29;82583;-89
2022/10/23 00:22:19;;;;;;;;;;;18.90;99.90;19.10;99357.00;;;;334636;29;89423;-89
2022/10/23 00:22:30;;;;;;;;;;;18.90;99.90;19.10;99351.00;;;;334108;29;82599;-89
2022/10/23 00:22:42;;;;;;;;;;;18.90;99.90;19.00;99347.00;;;;335507;28;90149;-88
2022/10/23 00:22:54;;;;;;;;;;;18.90;99.90;19.00;99341.00;;;;333942;29;82521;-89
2022/10/23 00:23:06;;;;;;;;;;;18.90;99.90;19.10;99345.00;;;;334883;29;89516;-88
2022/10/23 00:23:17;;;;;;;;;;;18.90;99.90;19.10;99348.00;;;;336657;28;82476;-88
2022/10/23 00:23:29;;;;;;;;;;;18.90;99.90;19.10;99350.00;;;;336142;28;88420;-89
2022/10/23 00:23:41;;;;;;;;;;;18.90;99.90;19.10;99333.00;;;;332817;29;82172;-88
2022/10/23 00:23:53;;;;;;;;;;;18.90;99.90;19.00;99346.00;;;;331889;29;92669;-89
2022/10/23 00:24:05;;;;;;;;;;;18.90;99.90;19.10;99352.00;;;;333812;29;83648;-89
2022/10/23 00:24:17;;;;;;;;;;;18.90;99.90;19.10;99352.00;;;;332143;29;90501;-89
2022/10/23 00:24:29;;;;;;;;;;;18.90;99.90;19.00;99352.00;;;;334063;29;83502;-89
2022/10/23 00:24:41;;;;;;;;;;;18.90;99.90;19.00;99354.00;;;;333687;29;87482;-89
2022/10/23 00:24:52;;;;;;;;;;;18.90;99.90;19.10;99346.00;;;;333876;29;82571;-89
2022/10/23 00:25:05;;;;;;;;;;;18.90;99.90;19.10;99344.00;;;;334972;29;88055;-89
2022/10/23 00:25:17;;;;;;;;;;;18.90;99.90;19.10;99343.00;;;;332802;29;83553;-89
2022/10/23 00:25:29;;;;;;;;;;;18.90;99.90;19.00;99333.00;;;;333323;29;88395;-89
2022/10/23 00:25:40;;;;;;;;;;;18.90;99.90;19.10;99336.00;;;;336331;28;83533;-89
2022/10/23 00:25:52;;;;;;;;;;;18.90;99.90;19.00;99336.00;;;;333134;29;89760;-89
2022/10/23 00:26:04;;;;;;;;;;;18.90;99.90;19.10;99337.00;;;;335347;29;83411;-89
2022/10/23 00:26:16;;;;;;;;;;;18.90;99.90;19.10;99329.00;;;;334918;29;87974;-89
2022/10/23 00:26:28;;;;;;;;;;;18.90;99.90;19.10;99349.00;;;;332340;29;83610;-89
2022/10/23 00:26:39;;;;;;;;;;;18.90;99.90;19.00;99343.00;;;;333725;29;88378;-89
2022/10/23 00:26:51;;;;;;;;;;;18.90;99.90;19.10;99339.00;;;;332315;29;83605;-89
2022/10/23 00:27:03;;;;;;;;;;;18.90;99.90;19.10;99341.00;;;;331005;29;91836;-89
2022/10/23 00:27:15;;;;;;;;;;;18.90;99.90;19.10;99347.00;;;;332494;29;82629;-89
2022/10/23 00:27:26;;;;;;;;;;;18.90;99.90;19.10;99341.00;;;;335114;28;91622;-89
2022/10/23 00:27:38;;;;;;;;;;;18.90;99.90;19.10;99342.00;;;;332574;29;83574;-89
2022/10/23 00:27:51;;;;;;;;;;;18.90;99.90;19.10;99340.00;;;;333385;29;92093;-89
2022/10/23 00:28:02;;;;;;;;;;;18.90;99.90;19.10;99342.00;;;;335251;29;82567;-89
2022/10/23 00:28:14;;;;;;;;;;;18.90;99.90;19.10;99334.00;;;;337540;28;89038;-89
2022/10/23 00:28:26;;;;;;;;;;;18.90;99.90;19.10;99345.00;;;;335240;29;82518;-89
2022/10/23 00:28:37;;;;;;;;;;;18.90;99.90;19.10;99345.00;;;;333094;29;90226;-89
2022/10/23 00:28:50;;;;;;;;;;;18.90;99.90;19.10;99342.00;;;;335312;29;83457;-89
2022/10/23 00:29:02;;;;;;;;;;;18.90;99.90;19.10;99338.00;;;;333640;29;88305;-89
2022/10/23 00:29:13;;;;;;;;;;;18.90;99.90;19.10;99343.00;;;;335297;29;83448;-89
2022/10/23 00:29:27;;;;;;;;;;;18.90;99.90;19.00;99349.00;;;;332217;29;90032;-89
2022/10/23 00:29:38;;;;;;;;;;;18.90;99.90;19.00;99344.00;;;;333988;29;83461;-89
2022/10/23 00:29:50;;;;;;;;;;;18.90;99.90;19.00;99341.00;;;;333539;29;88983;-89
2022/10/23 00:30:03;;;;;;;;;;;18.90;99.90;19.10;99339.00;;;;332673;29;82615;-89
2022/10/23 00:30:14;;;;;;;;;;;18.90;99.90;19.10;99343.00;;;;329925;29;88094;-89
2022/10/23 00:30:26;;;;;;;;;;;18.90;99.90;19.10;99339.00;;;;332761;29;83449;-89
2022/10/23 00:30:38;;;;;;;;;;;18.90;99.90;19.10;99346.00;;;;333656;29;89317;-89
2022/10/23 00:30:49;;;;;;;;;;;18.90;99.90;19.10;99343.00;;;;335574;29;83384;-89
2022/10/23 00:31:02;;;;;;;;;;;18.90;99.90;19.10;99342.00;;;;333878;29;89076;-89
2022/10/23 00:31:14;;;;;;;;;;;18.90;99.90;19.10;99348.00;;;;336820;28;82597;-89
2022/10/23 00:31:25;;;;;;;;;;;18.90;99.90;19.10;99339.00;;;;333849;29;89582;-89
2022/10/23 00:31:37;;;;;;;;;;;18.90;99.90;19.10;99333.00;;;;331385;29;83672;-89
2022/10/23 00:31:49;;;;;;;;;;;18.90;99.90;19.10;99326.00;;;;333361;29;91085;-89
2022/10/23 00:32:01;;;;;;;;;;;18.90;99.90;19.10;99342.00;;;;336887;28;83446;-89
2022/10/23 00:32:12;;;;;;;;;;;18.90;99.90;19.10;99324.00;;;;335058;29;89436;-88
2022/10/23 00:32:24;;;;;;;;;;;18.90;99.90;19.20;99334.00;;;;335570;29;82400;-89
2022/10/23 00:32:36;;;;;;;;;;;18.90;99.90;19.10;99350.00;;;;335071;29;89628;-89
2022/10/23 00:32:48;;;;;;;;;;;18.90;99.90;19.10;99335.00;;;;336291;28;82667;-89
2022/10/23 00:33:00;;;;;;;;;;;18.90;99.90;19.10;99339.00;;;;332471;29;87919;-89
2022/10/23 00:33:12;;;;;;;;;;;18.90;99.90;19.10;99333.00;;;;335504;29;83357;-89
2022/10/23 00:33:23;;;;;;;;;;;18.90;99.90;19.10;99328.00;;;;333806;29;91516;-89
2022/10/23 00:33:35;;;;;;;;;;;18.90;99.90;19.10;99333.00;;;;334240;29;83332;-89
2022/10/23 00:33:47;;;;;;;;;;;18.90;99.90;19.10;99331.00;;;;331891;29;90390;-89
2022/10/23 00:33:59;;;;;;;;;;;18.90;99.90;19.10;99335.00;;;;334211;29;83397;-89
2022/10/23 00:34:10;;;;;;;;;;;18.90;99.90;19.10;99334.00;;;;333738;29;88469;-89
2022/10/23 00:34:22;;;;;;;;;;;18.90;99.90;19.10;99332.00;;;;332951;29;83433;-89
2022/10/23 00:34:34;;;;;;;;;;;18.90;99.90;19.10;99331.00;;;;334948;29;91589;-89
2022/10/23 00:34:46;;;;;;;;;;;18.90;99.90;19.10;99324.00;;;;335235;29;83655;-89
2022/10/23 00:34:58;;;;;;;;;;;18.90;99.90;19.10;99333.00;;;;333583;29;90901;-89
2022/10/23 00:35:09;;;;;;;;;;;18.90;99.90;19.10;99333.00;;;;334210;29;82484;-89
2022/10/23 00:35:21;;;;;;;;;;;18.90;99.90;19.20;99331.00;;;;335963;28;90487;-88
2022/10/23 00:35:33;;;;;;;;;;;18.90;99.90;19.10;99326.00;;;;336362;28;82736;-89
2022/10/23 00:35:44;;;;;;;;;;;18.90;99.90;19.10;99325.00;;;;336295;28;90950;-89
2022/10/23 00:35:56;;;;;;;;;;;18.90;99.90;19.10;99328.00;;;;334147;29;83461;-89
2022/10/23 00:36:09;;;;;;;;;;;18.90;99.90;19.10;99326.00;;;;333959;29;88628;-89
2022/10/23 00:36:21;;;;;;;;;;;18.90;99.90;19.10;99334.00;;;;332972;29;83306;-89
2022/10/23 00:36:33;;;;;;;;;;;18.90;99.90;19.10;99326.00;;;;333595;29;90427;-89
2022/10/23 00:36:44;;;;;;;;;;;18.90;99.90;19.10;99329.00;;;;331458;29;82719;-89
2022/10/23 00:36:56;;;;;;;;;;;18.90;99.90;19.10;99329.00;;;;331221;29;87730;-89
2022/10/23 00:37:08;;;;;;;;;;;18.90;99.90;19.10;99326.00;;;;332815;29;83590;-89
2022/10/23 00:37:20;;;;;;;;;;;18.90;99.90;19.10;99326.00;;;;331375;29;88649;-89
2022/10/23 00:37:31;;;;;;;;;;;18.90;99.90;19.00;99320.00;;;;333570;29;82719;-89
2022/10/23 00:37:43;;;;;;;;;;;18.90;99.90;19.00;99318.00;;;;333562;29;91987;-88
2022/10/23 00:37:55;;;;;;;;;;;18.90;99.90;19.00;99312.00;;;;332436;29;83622;-89
2022/10/23 00:38:07;;;;;;;;;;;18.90;99.90;19.00;99311.00;;;;331294;29;86797;-89
2022/10/23 00:38:20;;;;;;;;;;;18.90;99.90;19.10;99309.00;;;;331739;29;83449;-89
2022/10/23 00:38:31;;;;;;;;;;;18.90;99.90;19.00;99304.00;;;;332219;29;88556;-89
2022/10/23 00:38:43;;;;;;;;;;;18.90;99.90;19.00;99314.00;;;;333060;29;83493;-89
2022/10/23 00:38:55;;;;;;;;;;;18.90;99.90;19.10;99306.00;;;;332333;29;90747;-90
2022/10/23 00:39:07;;;;;;;;;;;18.90;99.90;19.10;99311.00;;;;332619;29;82621;-88
2022/10/23 00:39:19;;;;;;;;;;;18.90;99.90;19.10;99310.00;;;;332363;29;91750;-89
2022/10/23 00:39:31;;;;;;;;;;;18.90;99.90;19.10;99296.00;;;;331119;29;83666;-89
2022/10/23 00:39:43;;;;;;;;;;;18.90;99.90;19.10;99312.00;;;;333916;29;89055;-89
2022/10/23 00:39:54;;;;;;;;;;;18.90;99.90;19.00;99300.00;;;;333973;29;83522;-90
2022/10/23 00:40:07;;;;;;;;;;;18.90;99.90;19.10;99304.00;;;;333726;29;90987;-89
2022/10/23 00:40:19;;;;;;;;;;;18.90;99.90;19.10;99296.00;;;;334265;29;83459;-89
2022/10/23 00:40:31;;;;;;;;;;;18.90;99.90;19.10;99296.00;;;;332234;29;88514;-89
2022/10/23 00:40:44;;;;;;;;;;;18.90;99.90;19.10;99307.00;;;;332485;29;84194;-89
2022/10/23 00:40:55;;;;;;;;;;;18.90;99.90;19.10;99305.00;;;;331276;29;88462;-89
2022/10/23 00:41:08;;;;;;;;;;;18.90;99.90;19.00;99298.00;;;;332855;29;83364;-89
2022/10/23 00:41:27;;;;;;;;;;;18.90;99.90;19.10;99296.00;;;;331344;29;88094;-89
2022/10/23 00:41:39;;;;;;;;;;;18.90;99.90;19.10;99296.00;;;;332963;29;83197;-89
2022/10/23 00:41:51;;;;;;;;;;;18.90;99.90;19.10;99296.00;;;;333661;29;92138;-89
2022/10/23 00:42:02;;;;;;;;;;;18.90;99.90;19.10;99308.00;;;;338288;28;82413;-89
2022/10/23 00:42:15;;;;;;;;;;;18.90;99.90;19.10;99299.00;;;;333671;29;91138;-89
2022/10/23 00:42:27;;;;;;;;;;;18.90;99.90;19.00;99300.00;;;;331473;29;83664;-89
2022/10/23 00:42:39;;;;;;;;;;;18.90;99.90;19.10;99298.00;;;;331352;29;86834;-89
2022/10/23 00:42:51;;;;;;;;;;;18.90;99.90;19.10;99305.00;;;;334271;29;83441;-89
2022/10/23 00:43:03;;;;;;;;;;;18.90;99.90;19.10;99306.00;;;;331267;29;91453;-89
2022/10/23 00:43:19;;;;;;;;;;;18.90;99.90;19.00;99307.00;;;;332720;29;83550;-89
2022/10/23 00:43:32;;;;;;;;;;;18.90;99.90;19.00;99298.00;;;;335012;29;89143;-89
2022/10/23 00:44:18;;;;;;;;;;;18.90;99.90;19.00;99297.00;;;;336526;28;83458;-88
2022/10/23 00:44:30;;;;;;;;;;;18.90;99.90;19.10;99308.00;;;;332373;29;90021;-89
2022/10/23 00:44:42;;;;;;;;;;;18.90;99.90;19.10;99307.00;;;;332899;29;83425;-89
2022/10/23 00:44:53;;;;;;;;;;;18.90;99.90;19.10;99305.00;;;;330979;29;89817;-89
2022/10/23 00:45:20;;;;;;;;;;;18.90;99.90;19.00;99297.00;;;;331638;29;83327;-89
2022/10/23 00:45:32;;;;;;;;;;;18.90;99.90;19.10;99307.00;;;;327294;29;90940;-89
2022/10/23 00:45:44;;;;;;;;;;;18.90;99.90;19.10;99297.00;;;;328877;29;83757;-89
2022/10/23 00:45:56;;;;;;;;;;;18.90;99.90;19.10;99297.00;;;;330480;29;88400;-89
2022/10/23 00:46:08;;;;;;;;;;;18.90;99.90;19.10;99295.00;;;;327728;29;83566;-89
2022/10/23 00:46:19;;;;;;;;;;;18.90;99.90;19.10;99292.00;;;;329982;29;89553;-89
2022/10/23 00:46:32;;;;;;;;;;;18.90;99.90;19.10;99295.00;;;;327737;29;84477;-89
2022/10/23 00:46:45;;;;;;;;;;;18.90;99.90;19.10;99307.00;;;;327199;29;91775;-90
2022/10/23 00:46:57;;;;;;;;;;;18.90;99.90;19.10;99293.00;;;;331627;29;82464;-89
2022/10/23 00:47:09;;;;;;;;;;;18.90;99.90;19.00;99305.00;;;;328517;29;88416;-89
2022/10/23 00:47:20;;;;;;;;;;;18.90;99.90;19.10;99306.00;;;;329141;29;83357;-89
2022/10/23 00:47:32;;;;;;;;;;;18.90;99.90;19.10;99290.00;;;;327514;29;89807;-89
2022/10/23 00:47:44;;;;;;;;;;;18.90;99.90;19.10;99304.00;;;;330385;29;83429;-89
2022/10/23 00:47:56;;;;;;;;;;;18.90;99.90;19.10;99296.00;;;;331170;29;90231;-87
2022/10/23 00:48:08;;;;;;;;;;;18.90;99.90;19.10;99294.00;;;;331671;29;83476;-89
2022/10/23 00:48:20;;;;;;;;;;;18.90;99.90;19.10;99289.00;;;;327309;29;90135;-89
2022/10/23 00:48:32;;;;;;;;;;;18.90;99.90;19.10;99294.00;;;;332778;29;82547;-89
2022/10/23 00:48:44;;;;;;;;;;;18.90;99.90;19.10;99296.00;;;;329989;29;90084;-89
2022/10/23 00:48:56;;;;;;;;;;;18.90;99.90;19.10;99288.00;;;;330370;29;82467;-89
2022/10/23 00:49:08;;;;;;;;;;;18.90;99.90;19.10;99295.00;;;;330951;29;90972;-89
2022/10/23 00:49:21;;;;;;;;;;;18.90;99.90;19.10;99289.00;;;;332680;29;83295;-89
2022/10/23 00:49:34;;;;;;;;;;;18.90;99.90;19.10;99291.00;;;;329571;29;89991;-89
2022/10/23 00:49:47;;;;;;;;;;;18.90;99.90;19.10;99293.00;;;;329946;29;83620;-89
2022/10/23 00:50:00;;;;;;;;;;;18.90;99.90;19.00;99288.00;;;;332488;29;87995;-90
2022/10/23 00:50:12;;;;;;;;;;;18.90;99.90;19.00;99287.00;;;;331649;29;82911;-89
2022/10/23 00:50:24;;;;;;;;;;;18.90;99.90;19.10;99289.00;;;;331185;29;90796;-89
2022/10/23 00:50:36;;;;;;;;;;;18.90;99.90;19.10;99299.00;;;;331558;29;82582;-89
2022/10/23 00:50:48;;;;;;;;;;;18.90;99.90;19.00;99291.00;;;;331008;29;92249;-89
2022/10/23 00:50:59;;;;;;;;;;;18.90;99.90;19.00;99292.00;;;;331631;29;83411;-89
2022/10/23 00:51:11;;;;;;;;;;;18.90;99.90;19.00;99289.00;;;;327203;29;90489;-89
2022/10/23 00:51:23;;;;;;;;;;;18.90;99.90;19.00;99291.00;;;;330157;29;82625;-89
2022/10/23 00:51:42;;;;;;;;;;;18.90;99.90;19.00;99289.00;;;;330010;29;87818;-89
2022/10/23 00:52:00;;;;;;;;;;;18.90;99.90;19.00;99295.00;;;;330204;29;82738;-89
2022/10/23 00:52:11;;;;;;;;;;;18.90;99.90;19.00;99294.00;;;;328834;29;88687;-89
2022/10/23 00:52:23;;;;;;;;;;;18.90;99.90;19.00;99291.00;;;;330129;29;83587;-88
2022/10/23 00:52:37;;;;;;;;;;;18.90;99.90;19.00;99292.00;;;;331090;29;91835;-89
2022/10/23 00:52:51;;;;;;;;;;;18.80;99.90;19.00;99292.00;;;;331272;29;83630;-89
2022/10/23 00:53:03;;;;;;;;;;;18.80;99.90;19.00;99290.00;;;;330451;29;90533;-89
2022/10/23 00:53:16;;;;;;;;;;;18.80;99.90;19.00;99286.00;;;;332978;29;82707;-89
2022/10/23 00:53:27;;;;;;;;;;;18.80;99.90;19.00;99291.00;;;;331028;29;88348;-89
2022/10/23 00:53:39;;;;;;;;;;;18.80;99.90;19.10;99295.00;;;;331710;29;83423;-89
2022/10/23 00:53:53;;;;;;;;;;;18.80;99.90;19.10;99298.00;;;;331192;29;88055;-89
2022/10/23 00:54:26;;;;;;;;;;;18.80;99.90;19.10;99292.00;;;;329039;29;83404;-88
2022/10/23 00:54:41;;;;;;;;;;;18.90;99.90;19.10;99287.00;;;;328670;29;92253;-89
2022/10/23 00:54:53;;;;;;;;;;;18.90;99.90;19.10;99292.00;;;;327944;29;83419;-89
2022/10/23 00:55:05;;;;;;;;;;;18.90;99.90;19.10;99289.00;;;;328591;29;91828;-88
2022/10/23 00:55:18;;;;;;;;;;;18.90;99.90;19.10;99294.00;;;;329110;29;82520;-89
2022/10/23 00:55:29;;;;;;;;;;;18.90;99.90;19.10;99298.00;;;;328624;29;89575;-89
2022/10/23 00:55:45;;;;;;;;;;;18.90;99.90;19.10;99307.00;;;;330004;29;83524;-89
2022/10/23 00:55:58;;;;;;;;;;;18.90;99.90;19.10;99300.00;;;;329874;29;89217;-89
2022/10/23 00:56:10;;;;;;;;;;;18.90;99.90;19.10;99299.00;;;;330200;29;82577;-89
2022/10/23 00:56:22;;;;;;;;;;;18.90;99.90;19.10;99296.00;;;;330940;29;92205;-89
2022/10/23 00:56:34;;;;;;;;;;;18.90;99.90;19.10;99289.00;;;;331576;29;84126;-89
2022/10/23 00:56:46;;;;;;;;;;;18.90;99.90;19.20;99291.00;;;;329930;29;89994;-89
2022/10/23 00:57:00;;;;;;;;;;;18.90;99.90;19.10;99285.00;;;;331538;29;83667;-89
2022/10/23 00:57:12;;;;;;;;;;;18.90;99.90;19.10;99297.00;;;;328342;29;89601;-89
2022/10/23 00:57:24;;;;;;;;;;;18.90;99.90;19.10;99286.00;;;;327689;29;83630;-89
2022/10/23 00:57:39;;;;;;;;;;;18.90;99.90;19.10;99295.00;;;;327658;29;89454;-89
2022/10/23 00:57:51;;;;;;;;;;;18.90;99.90;19.10;99298.00;;;;330278;29;83477;-89
2022/10/23 00:58:03;;;;;;;;;;;18.90;99.90;19.10;99310.00;;;;327282;29;89041;-89
2022/10/23 00:58:18;;;;;;;;;;;18.90;99.90;19.10;99295.00;;;;327893;29;82450;-89
2022/10/23 00:58:29;;;;;;;;;;;18.90;99.90;19.10;99299.00;;;;328489;29;91560;-88
2022/10/23 00:58:41;;;;;;;;;;;18.90;99.90;19.10;99297.00;;;;329171;29;82521;-89
2022/10/23 00:58:53;;;;;;;;;;;18.90;99.90;19.10;99297.00;;;;328688;29;91238;-89
2022/10/23 00:59:05;;;;;;;;;;;18.90;99.90;19.10;99304.00;;;;326669;29;83624;-89
2022/10/23 00:59:16;;;;;;;;;;;18.90;99.90;19.10;99299.00;;;;328700;29;87919;-89
2022/10/23 00:59:28;;;;;;;;;;;18.90;99.90;19.10;99290.00;;;;329137;29;83616;-90
2022/10/23 00:59:40;;;;;;;;;;;18.90;99.90;19.10;99292.00;;;;327465;29;92047;-89
2022/10/23 00:59:52;;;;;;;;;;;18.90;99.90;19.10;99289.00;;;;330085;29;82662;-89
2022/10/23 01:00:04;;;;;;;;;;;18.90;99.90;19.10;99292.00;;;;331221;29;88385;-89
2022/10/23 01:00:40;;;;;;;;;;;18.90;99.90;19.10;99296.00;;;;326634;29;83419;-89
2022/10/23 01:00:53;;;;;;;;;;;18.90;99.90;19.10;99295.00;;;;326140;29;88369;-89
2022/10/23 01:01:18;;;;;;;;;;;18.90;99.90;19.10;99292.00;;;;328909;29;83477;-89
2022/10/23 01:01:30;;;;;;;;;;;18.90;99.90;19.10;99282.00;;;;333615;29;89077;-89
2022/10/23 01:01:42;;;;;;;;;;;18.90;99.90;19.10;99289.00;;;;332870;29;83438;-89
2022/10/23 01:01:54;;;;;;;;;;;18.90;99.90;19.10;99289.00;;;;329725;29;91872;-88
2022/10/23 01:02:07;;;;;;;;;;;18.90;99.90;19.10;99286.00;;;;327303;29;83644;-89
2022/10/23 01:02:18;;;;;;;;;;;18.90;99.90;19.10;99289.00;;;;331145;29;90242;-89
2022/10/23 01:02:30;;;;;;;;;;;18.90;99.90;19.10;99284.00;;;;330011;29;83555;-89
2022/10/23 01:02:42;;;;;;;;;;;18.90;99.90;19.10;99291.00;;;;329876;29;87994;-90